Terminal Aerodrome Forecast
Issued by NWS Cleveland, OH

Home | Current Version | Previous Version | Graphics & Text | Print | Product List | Glossary On
Versions: 1 2 3 4 5 6 7 8 9 10 11 12 13 14 15 16 17 18 19 20 21 22 23 24 25 26 27
000
FTUS41 KCLE 210526
TAFCLE
TAF
KCLE 210526Z 2106/2212 21006KT P6SM OVC022
     FM210800 21006KT P6SM OVC015
     FM211000 20006KT 5SM -DZ BR OVC008
     FM211300 20006KT 3SM -DZ BR OVC004
     FM211900 20008KT 5SM -DZ BR OVC008
     FM220800 18005KT 3SM -RA BR OVC008=

USA.gov is the U.S. government's official web portal to all federal, state and local government web resources and services.